Time;durP1;ratioP1;P1;durP2;ratioP2;P2;SDS_P1;SDS_P2;PMS_P1;PMS_P2;Temp;Humidity;BMP_temperature;BMP_pressure;BME280_temperature;BME280_humidity;BME280_pressure;Samples;Min_cycle;Max_cycle;Signal;HPM_P1;HPM_P2
2024/01/27 00:01:07;;;;;;;;;;;;;;;-0.13;100.00;102905.03;4896498;29;19971;-75
2024/01/27 00:03:32;;;;;;;;;;;;;;;-0.17;100.00;102907.81;4896938;29;19924;-75
2024/01/27 00:05:57;;;;;;;;;;;;;;;-0.08;100.00;102909.16;4896327;29;19923;-76
2024/01/27 00:10:50;;;;;;;;;;;;;;;0.04;100.00;102917.44;4902706;23;19936;-75
2024/01/27 00:13:15;;;;;;;;;;;;;;;-0.01;100.00;102923.81;4888429;29;19946;-75
2024/01/27 00:15:41;;;;;;;;;;;;;;;-0.04;100.00;102933.72;4896258;29;20376;-75
2024/01/27 00:18:06;;;;;;;;;;;;;;;-0.07;100.00;102925.91;4896999;29;19930;-75
2024/01/27 00:20:31;;;;;;;;;;;;;;;-0.02;100.00;102924.75;4896211;29;19959;-75
2024/01/27 00:22:56;;;;;;;;;;;;;;;0.00;100.00;102927.34;4896262;29;19924;-75
2024/01/27 00:25:21;;;;;;;;;;;;;;;0.04;100.00;102930.69;4896953;29;19923;-75
2024/01/27 00:27:47;;;;;;;;;;;;;;;0.01;100.00;102920.22;4896099;29;19924;-75
2024/01/27 00:30:12;;;;;;;;;;;;;;;0.06;100.00;102929.66;4896043;29;19924;-75
2024/01/27 00:32:37;;;;;;;;;;;;;;;0.06;100.00;102934.09;4896771;29;19979;-74
2024/01/27 00:35:03;;;;;;;;;;;;;;;0.03;100.00;102934.25;4896367;29;19987;-74
2024/01/27 00:37:28;;;;;;;;;;;;;;;0.07;100.00;102920.78;4895936;29;19924;-74
2024/01/27 00:39:53;;;;;;;;;;;;;;;0.02;100.00;102928.09;4896841;29;19931;-74
2024/01/27 00:42:23;;;;;;;;;;;;;;;-0.04;100.00;102929.25;4895814;29;19971;-75
2024/01/27 00:44:48;;;;;;;;;;;;;;;-0.06;100.00;102935.56;4896075;29;19946;-75
2024/01/27 00:47:14;;;;;;;;;;;;;;;-0.02;100.00;102939.78;4896843;29;20385;-75
2024/01/27 00:49:39;;;;;;;;;;;;;;;-0.03;100.00;102941.56;4895817;29;20307;-75
2024/01/27 00:52:10;;;;;;;;;;;;;;;-0.07;100.00;102937.34;4895285;29;20339;-74
2024/01/27 00:54:35;;;;;;;;;;;;;;;-0.08;100.00;102932.97;4896641;29;20344;-74
2024/01/27 00:57:01;;;;;;;;;;;;;;;-0.14;100.00;102938.59;4894708;29;19927;-74
2024/01/27 00:59:29;;;;;;;;;;;;;;;-0.09;100.00;102941.84;4895539;29;19931;-74
2024/01/27 01:01:54;;;;;;;;;;;;;;;-0.04;100.00;102939.00;4896401;29;19963;-74
2024/01/27 01:04:19;;;;;;;;;;;;;;;-0.16;100.00;102936.00;4895093;29;19955;-75
2024/01/27 01:06:44;;;;;;;;;;;;;;;-0.19;100.00;102951.19;4896411;29;19930;-75
2024/01/27 01:09:10;;;;;;;;;;;;;;;-0.22;100.00;102944.25;4896435;29;19923;-75
2024/01/27 01:11:35;;;;;;;;;;;;;;;-0.16;100.00;102948.41;4894659;29;19924;-75
2024/01/27 01:14:00;;;;;;;;;;;;;;;-0.16;100.00;102951.88;4895818;29;19920;-76
2024/01/27 01:16:25;;;;;;;;;;;;;;;-0.22;100.00;102946.91;4896446;29;20435;-76
2024/01/27 01:18:50;;;;;;;;;;;;;;;-0.21;100.00;102948.63;4901828;29;20423;-75
2024/01/27 01:21:16;;;;;;;;;;;;;;;-0.23;100.00;102946.97;4902147;29;20496;-76
2024/01/27 01:23:41;;;;;;;;;;;;;;;-0.23;100.00;102947.84;4901054;29;20376;-75
2024/01/27 01:26:06;;;;;;;;;;;;;;;-0.24;100.00;102956.72;4898744;29;20384;-76
2024/01/27 01:28:32;;;;;;;;;;;;;;;-0.34;100.00;102958.94;4899664;29;19923;-76
2024/01/27 01:30:57;;;;;;;;;;;;;;;-0.29;100.00;102942.00;4899787;29;19943;-75
2024/01/27 01:33:22;;;;;;;;;;;;;;;-0.36;100.00;102949.38;4898226;29;19924;-76
2024/01/27 01:35:47;;;;;;;;;;;;;;;-0.36;100.00;102957.31;4899484;29;19923;-76
2024/01/27 01:38:13;;;;;;;;;;;;;;;-0.32;100.00;102966.78;4899892;29;20022;-76
2024/01/27 01:40:38;;;;;;;;;;;;;;;-0.21;100.00;102958.34;4898499;29;20010;-76
2024/01/27 01:43:04;;;;;;;;;;;;;;;-0.17;100.00;102959.91;4898877;29;19955;-76
2024/01/27 01:45:29;;;;;;;;;;;;;;;-0.16;100.00;102959.81;4898900;29;20035;-75
2024/01/27 01:47:57;;;;;;;;;;;;;;;-0.11;100.00;102964.03;4899056;29;20035;-76
2024/01/27 01:50:22;;;;;;;;;;;;;;;-0.07;100.00;102971.75;4898866;29;19931;-75
2024/01/27 01:52:48;;;;;;;;;;;;;;;-0.08;100.00;102969.19;4899622;29;19923;-75
2024/01/27 01:55:13;;;;;;;;;;;;;;;-0.16;100.00;102965.13;4898373;29;19927;-75
2024/01/27 01:57:39;;;;;;;;;;;;;;;-0.13;100.00;102973.84;4898905;29;19939;-75
2024/01/27 02:00:04;;;;;;;;;;;;;;;-0.25;100.00;102978.81;4882617;29;20295;-76
2024/01/27 02:02:29;;;;;;;;;;;;;;;-0.29;100.00;102976.38;4898094;29;20359;-75
2024/01/27 02:04:55;;;;;;;;;;;;;;;-0.26;100.00;102966.50;4898804;29;19931;-76
2024/01/27 02:07:20;;;;;;;;;;;;;;;-0.20;100.00;102966.22;4898582;29;20018;-76
2024/01/27 02:09:45;;;;;;;;;;;;;;;-0.24;100.00;102964.66;4898608;29;19923;-76
2024/01/27 02:12:10;;;;;;;;;;;;;;;-0.31;100.00;102956.16;4898236;29;19923;-76
2024/01/27 02:14:36;;;;;;;;;;;;;;;-0.38;100.00;102957.34;4898139;29;19987;-76
2024/01/27 02:17:01;;;;;;;;;;;;;;;-0.31;100.00;102961.44;4896147;29;19928;-76
2024/01/27 02:19:29;;;;;;;;;;;;;;;-0.37;100.00;102958.22;4898596;29;20403;-76
2024/01/27 02:21:54;;;;;;;;;;;;;;;-0.41;100.00;102956.66;4897368;29;20014;-76
2024/01/27 02:24:19;;;;;;;;;;;;;;;-0.49;100.00;102955.22;4898623;29;19975;-75
2024/01/27 02:26:45;;;;;;;;;;;;;;;-0.52;100.00;102955.34;4898276;29;19977;-75
2024/01/27 02:29:10;;;;;;;;;;;;;;;-0.55;100.00;102960.81;4896759;29;19924;-76
2024/01/27 02:31:35;;;;;;;;;;;;;;;-0.48;100.00;102966.69;4898804;29;19923;-76
2024/01/27 02:34:00;;;;;;;;;;;;;;;-0.44;100.00;102962.09;4881673;29;19939;-76
2024/01/27 02:36:25;;;;;;;;;;;;;;;-0.43;100.00;102961.16;4897754;29;19930;-76
2024/01/27 02:38:51;;;;;;;;;;;;;;;-0.49;100.00;102971.09;4898573;29;19931;-76
2024/01/27 02:41:16;;;;;;;;;;;;;;;-0.45;100.00;102977.13;4898026;29;19930;-76
2024/01/27 02:43:41;;;;;;;;;;;;;;;-0.39;100.00;102976.81;4897415;29;19924;-75
2024/01/27 02:46:07;;;;;;;;;;;;;;;-0.39;100.00;102968.03;4897951;29;19930;-76
2024/01/27 02:48:32;;;;;;;;;;;;;;;-0.55;100.00;102960.81;4898590;29;19923;-75
2024/01/27 02:51:04;;;;;;;;;;;;;;;-0.66;100.00;102958.66;4897432;29;19939;-76
2024/01/27 02:53:29;;;;;;;;;;;;;;;-0.67;100.00;102961.38;4898732;29;19924;-76
2024/01/27 02:55:54;;;;;;;;;;;;;;;-0.64;100.00;102956.81;4897544;29;19970;-75
2024/01/27 02:58:20;;;;;;;;;;;;;;;-0.69;100.00;102953.50;4896296;29;19978;-76
2024/01/27 03:00:45;;;;;;;;;;;;;;;-0.67;100.00;102953.44;4898477;29;19923;-76
2024/01/27 03:03:10;;;;;;;;;;;;;;;-0.54;100.00;102956.38;4897497;29;19924;-75
2024/01/27 03:05:38;;;;;;;;;;;;;;;-0.61;100.00;102953.16;4880102;29;19923;-76
2024/01/27 03:08:04;;;;;;;;;;;;;;;-0.57;100.00;102965.31;4898729;29;20324;-76
2024/01/27 03:10:31;;;;;;;;;;;;;;;-0.55;100.00;102976.69;4897115;29;20047;-75
2024/01/27 03:12:56;;;;;;;;;;;;;;;-0.51;100.00;102961.53;4896576;29;19928;-76
2024/01/27 03:15:21;;;;;;;;;;;;;;;-0.56;100.00;102958.22;4897535;29;20538;-76
2024/01/27 03:17:46;;;;;;;;;;;;;;;-0.52;100.00;102963.28;4896809;29;20090;-75
2024/01/27 03:20:12;;;;;;;;;;;;;;;-0.52;100.00;102965.94;4897000;29;19924;-75
2024/01/27 03:22:37;;;;;;;;;;;;;;;-0.61;100.00;102961.09;4898569;29;19924;-75
2024/01/27 03:25:02;;;;;;;;;;;;;;;-0.67;100.00;102961.38;4897382;29;19927;-76
2024/01/27 03:27:30;;;;;;;;;;;;;;;-0.71;100.00;102957.16;4907698;29;19951;-75
2024/01/27 03:29:58;;;;;;;;;;;;;;;-0.73;100.00;102959.88;4900627;29;19982;-75
2024/01/27 03:32:23;;;;;;;;;;;;;;;-0.73;100.00;102969.59;4896931;29;19935;-75
2024/01/27 03:34:48;;;;;;;;;;;;;;;-0.75;100.00;102972.28;4897554;29;19923;-75
2024/01/27 03:37:14;;;;;;;;;;;;;;;-0.66;100.00;102974.53;4897288;29;19934;-75
2024/01/27 03:39:41;;;;;;;;;;;;;;;-0.61;100.00;102980.44;4896154;29;19923;-75
2024/01/27 03:42:09;;;;;;;;;;;;;;;-0.66;100.00;102973.66;4896520;29;19927;-75
2024/01/27 03:44:34;;;;;;;;;;;;;;;-0.63;100.00;102984.09;4896758;29;19934;-74
2024/01/27 03:47:00;;;;;;;;;;;;;;;-0.68;100.00;102983.44;4896241;29;20324;-74
2024/01/27 03:49:25;;;;;;;;;;;;;;;-0.71;100.00;102971.22;4902893;23;20296;-75
2024/01/27 03:51:50;;;;;;;;;;;;;;;-0.70;100.00;102982.66;4897742;29;19975;-75
2024/01/27 03:54:15;;;;;;;;;;;;;;;-0.71;100.00;102980.97;4896149;29;19975;-75
2024/01/27 03:56:43;;;;;;;;;;;;;;;-0.63;100.00;102966.47;4896444;29;19978;-75
2024/01/27 03:59:10;;;;;;;;;;;;;;;-0.66;100.00;102973.66;4896175;29;20372;-74
2024/01/27 04:01:36;;;;;;;;;;;;;;;-0.73;100.00;102975.72;4895877;29;20022;-73
2024/01/27 04:04:02;;;;;;;;;;;;;;;-0.69;100.00;102979.97;4896492;29;20018;-73
2024/01/27 04:06:27;;;;;;;;;;;;;;;-0.71;100.00;102978.31;4894047;29;19959;-73
2024/01/27 04:08:55;;;;;;;;;;;;;;;-0.70;100.00;102987.94;4896348;29;20487;-73
2024/01/27 04:11:21;;;;;;;;;;;;;;;-0.75;100.00;102992.59;4896123;29;19970;-73
2024/01/27 04:13:46;;;;;;;;;;;;;;;-0.67;100.00;102995.75;4896799;29;19966;-73
2024/01/27 04:16:11;;;;;;;;;;;;;;;-0.63;100.00;102986.75;4895966;29;19939;-73
2024/01/27 04:18:38;;;;;;;;;;;;;;;-0.70;100.00;102987.94;4895665;29;20448;-73
2024/01/27 04:21:06;;;;;;;;;;;;;;;-0.77;100.00;102993.53;4895863;29;20042;-73
2024/01/27 04:23:33;;;;;;;;;;;;;;;-0.64;100.00;103011.47;4893779;29;19967;-73
2024/01/27 04:25:58;;;;;;;;;;;;;;;-0.69;100.00;103010.81;4896057;29;20302;-73
2024/01/27 04:28:23;;;;;;;;;;;;;;;-0.70;100.00;102998.53;4896198;29;20419;-73
2024/01/27 04:30:48;;;;;;;;;;;;;;;-0.73;100.00;103007.47;4896595;29;20402;-73
2024/01/27 04:33:14;;;;;;;;;;;;;;;-0.73;100.00;103006.63;4892201;29;19924;-73
2024/01/27 04:35:39;;;;;;;;;;;;;;;-0.82;100.00;103006.09;4892274;29;19978;-73
2024/01/27 04:38:04;;;;;;;;;;;;;;;-0.82;100.00;102999.97;4896644;29;20514;-73
2024/01/27 04:40:30;;;;;;;;;;;;;;;-0.86;100.00;102993.94;4895897;29;20380;-73
2024/01/27 04:42:55;;;;;;;;;;;;;;;-0.84;100.00;102992.09;4895268;29;20387;-73
2024/01/27 04:45:21;;;;;;;;;;;;;;;-0.94;100.00;102996.91;4897048;29;19975;-73
2024/01/27 04:47:46;;;;;;;;;;;;;;;-0.91;100.00;102995.94;4896207;29;20376;-73
2024/01/27 04:50:11;;;;;;;;;;;;;;;-0.83;100.00;102985.88;4894568;29;20292;-73
2024/01/27 04:52:36;;;;;;;;;;;;;;;-0.83;100.00;102982.38;4897130;29;21813;-73
2024/01/27 04:55:02;;;;;;;;;;;;;;;-0.87;100.00;102986.94;4895839;29;20461;-73
2024/01/27 04:57:28;;;;;;;;;;;;;;;-0.82;100.00;102984.94;4891318;29;20384;-73
2024/01/27 04:59:53;;;;;;;;;;;;;;;-0.77;100.00;102982.09;4895487;29;20014;-73
2024/01/27 05:02:18;;;;;;;;;;;;;;;-0.80;100.00;102980.44;4894976;29;19934;-73
2024/01/27 05:04:44;;;;;;;;;;;;;;;-0.83;100.00;102977.94;4895157;29;20052;-73
2024/01/27 05:07:09;;;;;;;;;;;;;;;-0.90;100.00;102981.81;4896966;29;19927;-73
2024/01/27 05:09:35;;;;;;;;;;;;;;;-0.88;100.00;102974.63;4895922;29;19923;-73
2024/01/27 05:12:00;;;;;;;;;;;;;;;-0.97;100.00;102972.41;4894900;29;19927;-73
2024/01/27 05:14:25;;;;;;;;;;;;;;;-0.86;100.00;102962.19;4896689;29;19971;-73
2024/01/27 05:16:50;;;;;;;;;;;;;;;-0.78;100.00;102978.59;4895130;29;19924;-73
2024/01/27 05:19:17;;;;;;;;;;;;;;;-0.81;100.00;102965.50;4894191;29;19977;-73
2024/01/27 05:21:43;;;;;;;;;;;;;;;-0.78;100.00;102975.06;4896584;29;20384;-73
2024/01/27 05:24:08;;;;;;;;;;;;;;;-0.78;100.00;102973.31;4896214;29;20002;-73
2024/01/27 05:26:33;;;;;;;;;;;;;;;-0.81;100.00;102981.38;4894598;29;19924;-73
2024/01/27 05:28:58;;;;;;;;;;;;;;;-0.78;100.00;102973.31;4895241;29;19930;-73
2024/01/27 05:31:25;;;;;;;;;;;;;;;-0.75;100.00;102980.22;4893305;29;19931;-73
2024/01/27 05:33:50;;;;;;;;;;;;;;;-0.80;100.00;102983.09;4895660;29;19924;-73
2024/01/27 05:36:16;;;;;;;;;;;;;;;-0.83;100.00;102996.44;4896068;29;20018;-73
2024/01/27 05:38:44;;;;;;;;;;;;;;;-0.80;100.00;102998.13;4894325;29;19931;-73
2024/01/27 05:41:09;;;;;;;;;;;;;;;-0.83;100.00;102980.59;4891616;29;19924;-73
2024/01/27 05:43:34;;;;;;;;;;;;;;;-0.87;100.00;102992.22;4896022;29;19933;-75
2024/01/27 05:46:03;;;;;;;;;;;;;;;-0.88;100.00;102982.56;4893916;29;19958;-75
2024/01/27 05:48:31;;;;;;;;;;;;;;;-0.91;100.00;102980.09;4894888;29;19931;-75
2024/01/27 05:50:56;;;;;;;;;;;;;;;-0.92;100.00;102995.06;4896099;29;20288;-75
2024/01/27 05:53:22;;;;;;;;;;;;;;;-0.97;100.00;102993.56;4895342;29;19930;-75
2024/01/27 05:55:47;;;;;;;;;;;;;;;-1.04;100.00;102994.75;4893474;29;19923;-75
2024/01/27 05:58:12;;;;;;;;;;;;;;;-1.05;100.00;102998.31;4895101;29;20436;-75
2024/01/27 06:00:40;;;;;;;;;;;;;;;-1.09;100.00;103002.88;4901397;29;19924;-75
2024/01/27 06:03:08;;;;;;;;;;;;;;;-1.13;100.00;102996.88;4877386;29;20140;-75
2024/01/27 06:05:33;;;;;;;;;;;;;;;-1.14;100.00;102997.81;4905221;23;20391;-75
2024/01/27 06:07:59;;;;;;;;;;;;;;;-1.20;100.00;103006.00;4898727;29;19980;-76
2024/01/27 06:10:24;;;;;;;;;;;;;;;-1.24;100.00;102999.16;4892649;29;19966;-75
2024/01/27 06:12:50;;;;;;;;;;;;;;;-1.23;100.00;102993.78;4899025;29;19923;-75
2024/01/27 06:15:16;;;;;;;;;;;;;;;-1.20;100.00;103000.72;4896412;29;19932;-75
2024/01/27 06:17:41;;;;;;;;;;;;;;;-1.19;100.00;102998.94;4898300;29;19924;-75
2024/01/27 06:20:06;;;;;;;;;;;;;;;-1.15;100.00;102998.72;4899268;29;19927;-75
2024/01/27 06:22:32;;;;;;;;;;;;;;;-1.19;100.00;103002.44;4898603;29;19934;-75
2024/01/27 06:25:00;;;;;;;;;;;;;;;-1.19;100.00;103010.34;4897364;29;19930;-75
2024/01/27 06:27:25;;;;;;;;;;;;;;;-1.18;100.00;103009.44;4898545;29;20014;-74
2024/01/27 06:29:51;;;;;;;;;;;;;;;-1.28;100.00;103018.69;4897866;29;20063;-74
2024/01/27 06:32:16;;;;;;;;;;;;;;;-1.20;100.00;103003.34;4897835;29;19983;-74
2024/01/27 06:34:41;;;;;;;;;;;;;;;-1.12;100.00;103010.94;4897887;29;19931;-74
2024/01/27 06:37:06;;;;;;;;;;;;;;;-1.10;100.00;103007.34;4899069;29;19931;-74
2024/01/27 06:39:32;;;;;;;;;;;;;;;-1.10;100.00;103004.69;4898073;29;19923;-74
2024/01/27 06:41:57;;;;;;;;;;;;;;;-1.09;100.00;103009.06;4897608;29;19931;-74
2024/01/27 06:44:22;;;;;;;;;;;;;;;-1.10;100.00;103014.38;4898444;29;20364;-75
2024/01/27 06:46:49;;;;;;;;;;;;;;;-1.15;100.00;103006.66;4898536;29;20395;-75
2024/01/27 06:49:15;;;;;;;;;;;;;;;-1.25;100.00;103008.84;4892686;29;20022;-75
2024/01/27 06:51:40;;;;;;;;;;;;;;;-1.14;100.00;103018.09;4898686;29;20392;-75
2024/01/27 06:54:05;;;;;;;;;;;;;;;-1.13;100.00;103012.75;4898112;29;19934;-73
2024/01/27 06:56:31;;;;;;;;;;;;;;;-1.12;100.00;103026.81;4897284;29;19924;-73
2024/01/27 06:58:56;;;;;;;;;;;;;;;-1.14;100.00;103026.88;4898339;29;19934;-73
2024/01/27 07:01:21;;;;;;;;;;;;;;;-1.15;100.00;103026.97;4897475;29;19924;-73
2024/01/27 07:03:46;;;;;;;;;;;;;;;-1.19;100.00;103026.22;4897153;29;19979;-73
2024/01/27 07:06:12;;;;;;;;;;;;;;;-1.21;100.00;103028.06;4916706;29;20113;-72
2024/01/27 07:08:37;;;;;;;;;;;;;;;-1.21;100.00;103020.13;4911828;29;19979;-72
2024/01/27 07:11:02;;;;;;;;;;;;;;;-1.23;100.00;103016.69;4912919;29;20411;-72
2024/01/27 07:13:29;;;;;;;;;;;;;;;-1.21;100.00;103014.84;4915763;29;20379;-72
2024/01/27 07:15:54;;;;;;;;;;;;;;;-1.17;100.00;103024.38;4913184;29;19923;-72
2024/01/27 07:18:19;;;;;;;;;;;;;;;-1.15;100.00;103025.16;4913423;29;19942;-72
2024/01/27 07:20:45;;;;;;;;;;;;;;;-1.11;100.00;103037.34;4914073;29;19923;-74
2024/01/27 07:23:10;;;;;;;;;;;;;;;-1.09;100.00;103035.47;4913920;29;19927;-73
2024/01/27 07:25:35;;;;;;;;;;;;;;;-1.07;100.00;103033.63;4913602;29;20288;-74
2024/01/27 07:28:00;;;;;;;;;;;;;;;-1.07;100.00;103023.06;4913939;29;19927;-72
2024/01/27 07:30:26;;;;;;;;;;;;;;;-1.05;100.00;103043.25;4913838;29;19933;-72
2024/01/27 07:32:51;;;;;;;;;;;;;;;-1.04;100.00;103037.03;4913631;29;19930;-72
2024/01/27 07:35:16;;;;;;;;;;;;;;;-1.08;100.00;103041.63;4914802;29;19927;-73
2024/01/27 07:37:46;;;;;;;;;;;;;;;-1.07;100.00;103038.94;4914280;29;20276;-72
2024/01/27 07:40:11;;;;;;;;;;;;;;;-0.93;100.00;103038.31;4912969;29;20359;-73
2024/01/27 07:42:37;;;;;;;;;;;;;;;-0.71;100.00;103036.50;4914666;29;20225;-72
2024/01/27 07:45:02;;;;;;;;;;;;;;;-0.48;100.00;103041.59;4913271;29;20399;-72
2024/01/27 07:47:27;;;;;;;;;;;;;;;-0.20;100.00;103050.06;4896103;29;19945;-75
2024/01/27 07:49:54;;;;;;;;;;;;;;;0.06;100.00;103062.06;4914435;29;20006;-73
2024/01/27 07:52:20;;;;;;;;;;;;;;;0.35;100.00;103061.59;4913480;29;20026;-74
2024/01/27 07:54:45;;;;;;;;;;;;;;;0.66;100.00;103068.03;4913861;29;20380;-72
2024/01/27 07:57:11;;;;;;;;;;;;;;;0.87;100.00;103082.84;4910335;29;19923;-72
2024/01/27 07:59:37;;;;;;;;;;;;;;;1.26;100.00;103082.69;4913835;29;20013;-72
2024/01/27 08:02:02;;;;;;;;;;;;;;;1.58;100.00;103081.00;4913414;29;19998;-74
2024/01/27 08:04:27;;;;;;;;;;;;;;;1.71;100.00;103080.31;4913208;29;20015;-75
2024/01/27 08:06:53;;;;;;;;;;;;;;;2.23;100.00;103073.91;4913556;29;19934;-76
2024/01/27 08:09:18;;;;;;;;;;;;;;;2.54;100.00;103075.66;4913580;29;19931;-74
2024/01/27 08:11:43;;;;;;;;;;;;;;;2.76;98.72;103079.75;4913477;29;19994;-74
2024/01/27 08:14:09;;;;;;;;;;;;;;;3.00;96.51;103076.59;4913546;29;20386;-74
2024/01/27 08:16:37;;;;;;;;;;;;;;;3.27;94.14;103081.16;4913255;29;19922;-74
2024/01/27 08:19:02;;;;;;;;;;;;;;;3.51;92.13;103080.63;4913368;29;19923;-73
2024/01/27 08:21:27;;;;;;;;;;;;;;;3.38;90.69;103088.50;4913769;29;19979;-73
2024/01/27 08:23:52;;;;;;;;;;;;;;;3.52;90.58;103085.00;4913131;29;19930;-74
2024/01/27 08:26:20;;;;;;;;;;;;;;;3.51;90.61;103096.59;4913012;29;20324;-74
2024/01/27 08:28:45;;;;;;;;;;;;;;;3.01;91.71;103080.91;4909187;29;19929;-74
2024/01/27 08:31:10;;;;;;;;;;;;;;;2.35;96.37;103081.19;4913878;29;19923;-74
2024/01/27 08:33:36;;;;;;;;;;;;;;;1.67;100.00;103083.13;4913310;29;19934;-75
2024/01/27 08:36:01;;;;;;;;;;;;;;;1.30;100.00;103086.91;4914260;29;20022;-74
2024/01/27 08:38:27;;;;;;;;;;;;;;;1.02;100.00;103093.63;4911817;29;19985;-74
2024/01/27 08:40:52;;;;;;;;;;;;;;;0.85;100.00;103097.16;4912540;29;19927;-75
2024/01/27 08:43:20;;;;;;;;;;;;;;;0.68;100.00;103093.53;4913842;29;19923;-74
2024/01/27 08:45:45;;;;;;;;;;;;;;;0.59;100.00;103092.22;4913327;29;19975;-74
2024/01/27 08:48:11;;;;;;;;;;;;;;;0.54;100.00;103103.94;4913241;29;19970;-74
2024/01/27 08:50:36;;;;;;;;;;;;;;;0.51;100.00;103096.16;4914134;29;20414;-74
2024/01/27 08:53:01;;;;;;;;;;;;;;;0.48;100.00;103098.97;4913230;29;19923;-74
2024/01/27 08:55:27;;;;;;;;;;;;;;;0.43;100.00;103102.69;4912593;29;20360;-75
2024/01/27 08:57:52;;;;;;;;;;;;;;;0.47;100.00;103091.94;4914781;29;20440;-74
2024/01/27 09:00:17;;;;;;;;;;;;;;;0.51;100.00;103096.16;4913825;29;20017;-74
2024/01/27 09:02:43;;;;;;;;;;;;;;;0.55;100.00;103101.25;4918584;29;19949;-73
2024/01/27 09:05:09;;;;;;;;;;;;;;;0.56;100.00;103110.03;4920161;29;19923;-73
2024/01/27 09:07:34;;;;;;;;;;;;;;;0.62;100.00;103107.09;4916952;29;19923;-73
2024/01/27 09:09:59;;;;;;;;;;;;;;;0.66;100.00;103103.38;4925580;29;19982;-75
2024/01/27 09:12:25;;;;;;;;;;;;;;;0.69;100.00;103103.22;4914147;29;20428;-73
2024/01/27 09:14:50;;;;;;;;;;;;;;;0.72;100.00;103113.63;4912278;29;19923;-74
2024/01/27 09:17:15;;;;;;;;;;;;;;;0.80;100.00;103107.13;4911957;29;19980;-74
2024/01/27 09:19:40;;;;;;;;;;;;;;;0.83;100.00;103102.50;4914217;29;20299;-74
2024/01/27 09:22:09;;;;;;;;;;;;;;;1.02;100.00;103105.09;4913262;29;19927;-74
2024/01/27 09:24:34;;;;;;;;;;;;;;;1.15;100.00;103099.16;4910182;29;19930;-74
2024/01/27 09:26:59;;;;;;;;;;;;;;;1.20;100.00;103105.94;4913286;29;19923;-74
2024/01/27 09:29:24;;;;;;;;;;;;;;;1.21;100.00;103102.34;4913160;29;19923;-76
2024/01/27 09:31:49;;;;;;;;;;;;;;;1.25;100.00;103099.53;4912159;29;19924;-75
2024/01/27 09:34:15;;;;;;;;;;;;;;;1.16;100.00;103103.53;4912858;29;19923;-75
2024/01/27 09:36:40;;;;;;;;;;;;;;;1.20;100.00;103113.06;4912887;29;19931;-75
2024/01/27 09:39:05;;;;;;;;;;;;;;;1.24;100.00;103114.59;4912708;29;20403;-76
2024/01/27 09:41:32;;;;;;;;;;;;;;;1.21;100.00;103104.16;4916285;29;20917;-76
2024/01/27 09:43:57;;;;;;;;;;;;;;;1.25;100.00;103116.31;4916586;29;19927;-76
2024/01/27 09:46:22;;;;;;;;;;;;;;;1.31;100.00;103107.19;4898493;29;19924;-76
2024/01/27 09:48:48;;;;;;;;;;;;;;;1.42;100.00;103112.78;4916777;29;19923;-76
2024/01/27 09:51:13;;;;;;;;;;;;;;;1.38;100.00;103100.59;4899518;29;20317;-76
2024/01/27 09:53:38;;;;;;;;;;;;;;;1.44;100.00;103108.25;4908190;23;20347;-77
2024/01/27 09:56:04;;;;;;;;;;;;;;;1.52;100.00;103113.16;4881163;29;20331;-75
2024/01/27 09:58:29;;;;;;;;;;;;;;;1.55;100.00;103125.41;4883909;29;20002;-76
2024/01/27 10:00:58;;;;;;;;;;;;;;;1.59;100.00;103114.53;4889016;29;20026;-76
2024/01/27 10:03:26;;;;;;;;;;;;;;;1.63;100.00;103124.06;4886507;29;19959;-75
2024/01/27 10:05:52;;;;;;;;;;;;;;;1.60;100.00;103115.41;4891412;29;20218;-76
2024/01/27 10:08:17;;;;;;;;;;;;;;;1.61;100.00;103133.91;4889217;23;19928;-76
2024/01/27 10:10:42;;;;;;;;;;;;;;;1.57;100.00;103137.69;4897635;29;20022;-76
2024/01/27 10:13:08;;;;;;;;;;;;;;;1.63;100.00;103137.34;4896741;29;19928;-77
2024/01/27 10:15:33;;;;;;;;;;;;;;;1.75;100.00;103140.28;4880143;29;19939;-77
2024/01/27 10:18:07;;;;;;;;;;;;;;;1.89;100.00;103140.41;4896504;29;19939;-77
2024/01/27 10:20:33;;;;;;;;;;;;;;;1.89;100.00;103132.44;4896502;29;19923;-78
2024/01/27 10:22:59;;;;;;;;;;;;;;;2.04;100.00;103135.19;4896129;29;19927;-77
2024/01/27 10:25:33;;;;;;;;;;;;;;;2.08;100.00;103131.44;4896734;29;20971;-77
2024/01/27 10:27:58;;;;;;;;;;;;;;;2.07;100.00;103130.56;4879055;29;19928;-78
2024/01/27 10:30:23;;;;;;;;;;;;;;;2.04;100.00;103137.84;4896767;29;19971;-77
2024/01/27 10:32:56;;;;;;;;;;;;;;;2.12;100.00;103135.59;4896433;29;20010;-76
2024/01/27 10:35:21;;;;;;;;;;;;;;;2.28;100.00;103143.59;4896515;29;19927;-78
2024/01/27 10:37:46;;;;;;;;;;;;;;;2.32;100.00;103144.28;4895742;29;19983;-77
2024/01/27 10:40:12;;;;;;;;;;;;;;;2.46;100.00;103141.72;4873360;29;19951;-78
2024/01/27 10:42:38;;;;;;;;;;;;;;;2.56;100.00;103137.59;4896551;29;19919;-77
2024/01/27 10:45:03;;;;;;;;;;;;;;;2.75;100.00;103141.84;4896523;29;20284;-77
2024/01/27 10:47:31;;;;;;;;;;;;;;;2.79;100.00;103145.19;4895989;29;19939;-78
2024/01/27 10:50:00;;;;;;;;;;;;;;;2.79;100.00;103147.84;4896594;29;20031;-77
2024/01/27 10:52:28;;;;;;;;;;;;;;;2.74;100.00;103150.78;4896080;29;20083;-78
2024/01/27 10:55:03;;;;;;;;;;;;;;;2.71;100.00;103145.63;4895485;29;20376;-77
2024/01/27 10:57:28;;;;;;;;;;;;;;;2.73;100.00;103136.63;4896593;29;19967;-78
2024/01/27 10:59:54;;;;;;;;;;;;;;;2.83;100.00;103134.28;4895227;29;20380;-77
2024/01/27 11:02:19;;;;;;;;;;;;;;;3.05;100.00;103146.31;4878348;29;19932;-77
2024/01/27 11:04:45;;;;;;;;;;;;;;;3.23;100.00;103148.84;4880823;29;19923;-76
2024/01/27 11:07:10;;;;;;;;;;;;;;;3.11;100.00;103148.63;4878983;29;20163;-76
2024/01/27 11:09:35;;;;;;;;;;;;;;;3.36;100.00;103141.00;4878346;29;19927;-76
2024/01/27 11:12:00;;;;;;;;;;;;;;;3.39;100.00;103146.97;4897158;29;19942;-78
2024/01/27 11:14:29;;;;;;;;;;;;;;;3.44;100.00;103133.41;4895456;29;19927;-78
2024/01/27 11:16:55;;;;;;;;;;;;;;;3.73;100.00;103144.91;4894223;29;19924;-77
2024/01/27 11:19:21;;;;;;;;;;;;;;;3.79;100.00;103133.03;4896378;29;19951;-77
2024/01/27 11:21:46;;;;;;;;;;;;;;;3.82;100.00;103143.47;4893129;29;19995;-77
2024/01/27 11:24:12;;;;;;;;;;;;;;;3.99;100.00;103144.22;4894810;29;19935;-76
2024/01/27 11:26:42;;;;;;;;;;;;;;;4.17;100.00;103137.72;4896512;29;20384;-76
2024/01/27 11:29:09;;;;;;;;;;;;;;;4.23;100.00;103134.69;4895605;29;19923;-76
2024/01/27 11:31:34;;;;;;;;;;;;;;;4.16;100.00;103128.03;4895086;29;19932;-77
2024/01/27 11:34:00;;;;;;;;;;;;;;;4.28;99.58;103133.53;4896270;29;19950;-77
2024/01/27 11:36:26;;;;;;;;;;;;;;;4.41;98.48;103129.13;4895377;29;19931;-77
2024/01/27 11:38:52;;;;;;;;;;;;;;;4.44;97.95;103120.94;4892927;29;19928;-76
2024/01/27 11:41:24;;;;;;;;;;;;;;;4.68;96.51;103115.78;4896396;29;20026;-77
2024/01/27 11:43:53;;;;;;;;;;;;;;;4.73;95.82;103120.81;4893964;29;20316;-77
2024/01/27 11:46:18;;;;;;;;;;;;;;;4.74;94.64;103132.34;4893868;29;19972;-77
2024/01/27 11:48:44;;;;;;;;;;;;;;;4.67;94.03;103123.91;4877262;23;19932;-77
2024/01/27 11:51:12;;;;;;;;;;;;;;;4.68;96.67;103123.78;4857232;29;19930;-77
2024/01/27 11:53:38;;;;;;;;;;;;;;;5.00;93.71;103128.78;4856697;29;19945;-78
2024/01/27 11:56:04;;;;;;;;;;;;;;;5.41;92.42;103126.06;4857650;29;20059;-77
2024/01/27 11:58:30;;;;;;;;;;;;;;;6.13;88.63;103130.81;4882079;29;20011;-77
2024/01/27 12:00:55;;;;;;;;;;;;;;;7.05;82.58;103142.81;4858188;29;20379;-77
2024/01/27 12:03:20;;;;;;;;;;;;;;;8.26;74.92;103150.34;4857860;29;19920;-78
2024/01/27 12:05:45;;;;;;;;;;;;;;;9.38;69.23;103159.94;4856946;29;19928;-78
2024/01/27 12:08:11;;;;;;;;;;;;;;;9.68;66.40;103158.28;4857796;29;19924;-78
2024/01/27 12:10:36;;;;;;;;;;;;;;;10.64;61.47;103163.25;4868924;23;19920;-78
2024/01/27 12:13:02;;;;;;;;;;;;;;;9.52;66.31;103173.06;4895204;29;19931;-78
2024/01/27 12:15:28;;;;;;;;;;;;;;;10.75;61.96;103163.13;4894659;29;19927;-78
2024/01/27 12:17:56;;;;;;;;;;;;;;;11.73;56.04;103158.56;4894117;29;19986;-78
2024/01/27 12:20:24;;;;;;;;;;;;;;;10.97;58.83;103144.97;4900572;23;19928;-77
2024/01/27 12:22:52;;;;;;;;;;;;;;;10.39;62.53;103148.47;4874930;29;20292;-77
2024/01/27 12:25:17;;;;;;;;;;;;;;;11.20;58.67;103144.66;4878045;29;20348;-78